sensor_id;sensor_type;location;lat;lon;timestamp;temperature;humidity
49731;DHT22;35622;52.008;5.426;2023-09-12T00:00:47;24.20;80.70
49731;DHT22;35622;52.008;5.426;2023-09-12T00:03:13;24.20;82.10
49731;DHT22;35622;52.008;5.426;2023-09-12T00:05:38;24.10;81.10
49731;DHT22;35622;52.008;5.426;2023-09-12T00:08:04;24.10;81.00
49731;DHT22;35622;52.008;5.426;2023-09-12T00:10:30;24.00;81.00
49731;DHT22;35622;52.008;5.426;2023-09-12T00:12:55;24.00;80.70
49731;DHT22;35622;52.008;5.426;2023-09-12T00:15:21;24.00;80.10
49731;DHT22;35622;52.008;5.426;2023-09-12T00:17:47;24.00;79.70
49731;DHT22;35622;52.008;5.426;2023-09-12T00:20:14;23.90;80.00
49731;DHT22;35622;52.008;5.426;2023-09-12T00:22:40;23.90;80.30
49731;DHT22;35622;52.008;5.426;2023-09-12T00:25:06;23.70;80.50
49731;DHT22;35622;52.008;5.426;2023-09-12T00:27:31;23.80;79.90
49731;DHT22;35622;52.008;5.426;2023-09-12T00:29:57;23.70;80.00
49731;DHT22;35622;52.008;5.426;2023-09-12T00:32:22;23.70;80.20
49731;DHT22;35622;52.008;5.426;2023-09-12T00:34:48;23.60;80.10
49731;DHT22;35622;52.008;5.426;2023-09-12T00:37:13;23.50;80.20
49731;DHT22;35622;52.008;5.426;2023-09-12T00:39:39;23.50;80.60
49731;DHT22;35622;52.008;5.426;2023-09-12T00:42:04;23.50;80.80
49731;DHT22;35622;52.008;5.426;2023-09-12T00:44:33;23.40;80.20
49731;DHT22;35622;52.008;5.426;2023-09-12T00:46:58;23.40;79.70
49731;DHT22;35622;52.008;5.426;2023-09-12T00:49:25;23.40;80.10
49731;DHT22;35622;52.008;5.426;2023-09-12T00:51:52;23.30;80.20
49731;DHT22;35622;52.008;5.426;2023-09-12T00:54:18;23.30;80.00
49731;DHT22;35622;52.008;5.426;2023-09-12T00:56:43;23.20;79.80
49731;DHT22;35622;52.008;5.426;2023-09-12T00:59:10;23.20;80.10
49731;DHT22;35622;52.008;5.426;2023-09-12T01:01:36;23.10;80.40
49731;DHT22;35622;52.008;5.426;2023-09-12T01:04:02;23.10;80.20
49731;DHT22;35622;52.008;5.426;2023-09-12T01:06:29;23.00;79.90
49731;DHT22;35622;52.008;5.426;2023-09-12T01:08:55;23.00;80.30
49731;DHT22;35622;52.008;5.426;2023-09-12T01:11:21;23.00;79.80
49731;DHT22;35622;52.008;5.426;2023-09-12T01:13:47;23.00;80.00
49731;DHT22;35622;52.008;5.426;2023-09-12T01:16:13;22.80;80.10
49731;DHT22;35622;52.008;5.426;2023-09-12T01:18:38;22.80;80.60
49731;DHT22;35622;52.008;5.426;2023-09-12T01:24:13;22.70;80.10
49731;DHT22;35622;52.008;5.426;2023-09-12T01:29:39;22.60;80.40
49731;DHT22;35622;52.008;5.426;2023-09-12T01:32:06;22.60;80.60
49731;DHT22;35622;52.008;5.426;2023-09-12T01:34:31;22.50;80.50
49731;DHT22;35622;52.008;5.426;2023-09-12T01:36:57;22.50;79.70
49731;DHT22;35622;52.008;5.426;2023-09-12T01:39:22;22.50;79.70
49731;DHT22;35622;52.008;5.426;2023-09-12T01:41:49;22.40;80.10
49731;DHT22;35622;52.008;5.426;2023-09-12T01:44:18;22.40;80.30
49731;DHT22;35622;52.008;5.426;2023-09-12T01:46:45;22.40;80.10
49731;DHT22;35622;52.008;5.426;2023-09-12T01:49:11;22.30;80.00
49731;DHT22;35622;52.008;5.426;2023-09-12T01:51:37;22.30;80.20
49731;DHT22;35622;52.008;5.426;2023-09-12T01:54:04;22.30;79.80
49731;DHT22;35622;52.008;5.426;2023-09-12T01:56:30;22.20;79.80
49731;DHT22;35622;52.008;5.426;2023-09-12T01:58:57;22.20;80.20
49731;DHT22;35622;52.008;5.426;2023-09-12T02:01:22;22.10;80.00
49731;DHT22;35622;52.008;5.426;2023-09-12T02:03:48;22.10;80.30
49731;DHT22;35622;52.008;5.426;2023-09-12T02:06:13;21.90;80.30
49731;DHT22;35622;52.008;5.426;2023-09-12T02:08:39;21.90;80.30
49731;DHT22;35622;52.008;5.426;2023-09-12T02:11:04;22.00;80.20
49731;DHT22;35622;52.008;5.426;2023-09-12T02:13:30;22.00;80.60
49731;DHT22;35622;52.008;5.426;2023-09-12T02:15:59;22.00;80.40
49731;DHT22;35622;52.008;5.426;2023-09-12T02:18:25;21.90;80.30
49731;DHT22;35622;52.008;5.426;2023-09-12T02:20:51;21.90;80.50
49731;DHT22;35622;52.008;5.426;2023-09-12T02:23:16;21.90;80.20
49731;DHT22;35622;52.008;5.426;2023-09-12T02:25:42;21.90;80.00
49731;DHT22;35622;52.008;5.426;2023-09-12T02:28:07;21.90;80.30
49731;DHT22;35622;52.008;5.426;2023-09-12T02:30:33;21.90;80.80
49731;DHT22;35622;52.008;5.426;2023-09-12T02:32:58;21.90;81.30
49731;DHT22;35622;52.008;5.426;2023-09-12T02:35:24;21.90;81.60
49731;DHT22;35622;52.008;5.426;2023-09-12T02:37:49;21.80;81.50
49731;DHT22;35622;52.008;5.426;2023-09-12T02:40:15;21.90;81.00
49731;DHT22;35622;52.008;5.426;2023-09-12T02:42:40;21.90;81.30
49731;DHT22;35622;52.008;5.426;2023-09-12T02:45:06;21.90;81.20
49731;DHT22;35622;52.008;5.426;2023-09-12T02:47:32;21.90;80.80
49731;DHT22;35622;52.008;5.426;2023-09-12T02:49:57;21.90;81.00
49731;DHT22;35622;52.008;5.426;2023-09-12T02:52:23;21.90;81.10
49731;DHT22;35622;52.008;5.426;2023-09-12T02:54:48;21.80;81.30
49731;DHT22;35622;52.008;5.426;2023-09-12T02:57:14;21.80;81.10
49731;DHT22;35622;52.008;5.426;2023-09-12T02:59:39;21.80;81.10
49731;DHT22;35622;52.008;5.426;2023-09-12T03:02:05;21.80;81.20
49731;DHT22;35622;52.008;5.426;2023-09-12T03:04:33;21.80;81.50
49731;DHT22;35622;52.008;5.426;2023-09-12T03:06:58;21.80;82.10
49731;DHT22;35622;52.008;5.426;2023-09-12T03:09:24;21.80;82.40
49731;DHT22;35622;52.008;5.426;2023-09-12T03:11:50;21.80;82.50
49731;DHT22;35622;52.008;5.426;2023-09-12T03:14:15;21.90;82.60
49731;DHT22;35622;52.008;5.426;2023-09-12T03:16:41;21.90;82.60
49731;DHT22;35622;52.008;5.426;2023-09-12T03:19:06;21.90;82.60
49731;DHT22;35622;52.008;5.426;2023-09-12T03:21:32;21.90;83.00
49731;DHT22;35622;52.008;5.426;2023-09-12T03:23:57;21.90;83.00
49731;DHT22;35622;52.008;5.426;2023-09-12T03:26:23;21.90;83.00
49731;DHT22;35622;52.008;5.426;2023-09-12T03:28:51;22.00;82.50
49731;DHT22;35622;52.008;5.426;2023-09-12T03:31:18;21.90;82.60
49731;DHT22;35622;52.008;5.426;2023-09-12T03:33:44;21.90;82.80
49731;DHT22;35622;52.008;5.426;2023-09-12T03:36:15;21.90;82.80
49731;DHT22;35622;52.008;5.426;2023-09-12T03:38:40;22.00;82.90
49731;DHT22;35622;52.008;5.426;2023-09-12T03:41:06;22.00;83.00
49731;DHT22;35622;52.008;5.426;2023-09-12T03:43:33;22.00;82.80
49731;DHT22;35622;52.008;5.426;2023-09-12T03:45:58;22.00;82.80
49731;DHT22;35622;52.008;5.426;2023-09-12T03:48:24;22.10;82.80
49731;DHT22;35622;52.008;5.426;2023-09-12T03:50:50;22.20;83.30
49731;DHT22;35622;52.008;5.426;2023-09-12T03:53:15;22.10;83.50
49731;DHT22;35622;52.008;5.426;2023-09-12T03:55:41;22.20;83.20
49731;DHT22;35622;52.008;5.426;2023-09-12T03:58:07;22.20;83.00
49731;DHT22;35622;52.008;5.426;2023-09-12T04:00:33;22.20;83.20
49731;DHT22;35622;52.008;5.426;2023-09-12T04:02:58;22.20;83.50
49731;DHT22;35622;52.008;5.426;2023-09-12T04:05:25;22.20;83.10
49731;DHT22;35622;52.008;5.426;2023-09-12T04:07:51;22.20;83.00
49731;DHT22;35622;52.008;5.426;2023-09-12T04:10:18;22.30;82.90
49731;DHT22;35622;52.008;5.426;2023-09-12T04:12:44;22.30;82.50
49731;DHT22;35622;52.008;5.426;2023-09-12T04:15:09;22.30;82.30
49731;DHT22;35622;52.008;5.426;2023-09-12T04:17:35;22.40;82.60
49731;DHT22;35622;52.008;5.426;2023-09-12T04:20:00;22.40;82.90
49731;DHT22;35622;52.008;5.426;2023-09-12T04:22:26;22.30;82.80
49731;DHT22;35622;52.008;5.426;2023-09-12T04:24:51;22.30;82.80
49731;DHT22;35622;52.008;5.426;2023-09-12T04:27:17;22.30;82.40
49731;DHT22;35622;52.008;5.426;2023-09-12T04:29:42;22.30;82.40
49731;DHT22;35622;52.008;5.426;2023-09-12T04:32:08;22.30;82.10
49731;DHT22;35622;52.008;5.426;2023-09-12T04:34:34;22.30;82.10
49731;DHT22;35622;52.008;5.426;2023-09-12T04:37:00;22.30;82.00
49731;DHT22;35622;52.008;5.426;2023-09-12T04:39:28;22.30;82.90
49731;DHT22;35622;52.008;5.426;2023-09-12T04:41:53;22.30;82.30
49731;DHT22;35622;52.008;5.426;2023-09-12T04:44:19;22.30;82.40
49731;DHT22;35622;52.008;5.426;2023-09-12T04:46:44;22.30;82.20
49731;DHT22;35622;52.008;5.426;2023-09-12T04:49:10;22.30;82.30
49731;DHT22;35622;52.008;5.426;2023-09-12T04:51:35;22.20;82.30
49731;DHT22;35622;52.008;5.426;2023-09-12T04:54:01;22.20;82.40
49731;DHT22;35622;52.008;5.426;2023-09-12T04:56:26;22.30;82.00
49731;DHT22;35622;52.008;5.426;2023-09-12T04:58:52;22.20;82.00
49731;DHT22;35622;52.008;5.426;2023-09-12T05:01:17;22.20;82.00
49731;DHT22;35622;52.008;5.426;2023-09-12T05:03:43;22.20;82.10
49731;DHT22;35622;52.008;5.426;2023-09-12T05:06:10;22.20;81.90
49731;DHT22;35622;52.008;5.426;2023-09-12T05:08:35;22.10;81.90
49731;DHT22;35622;52.008;5.426;2023-09-12T05:11:01;22.20;82.00
49731;DHT22;35622;52.008;5.426;2023-09-12T05:13:27;22.20;82.10
49731;DHT22;35622;52.008;5.426;2023-09-12T05:15:53;22.20;82.50
49731;DHT22;35622;52.008;5.426;2023-09-12T05:18:19;22.20;82.10
49731;DHT22;35622;52.008;5.426;2023-09-12T05:20:44;22.20;82.00
49731;DHT22;35622;52.008;5.426;2023-09-12T05:23:10;22.20;82.20
49731;DHT22;35622;52.008;5.426;2023-09-12T05:25:36;22.20;82.10
49731;DHT22;35622;52.008;5.426;2023-09-12T05:28:01;22.20;82.60
49731;DHT22;35622;52.008;5.426;2023-09-12T05:30:28;22.20;82.60
49731;DHT22;35622;52.008;5.426;2023-09-12T05:32:53;22.20;82.70
49731;DHT22;35622;52.008;5.426;2023-09-12T05:35:19;22.20;82.90
49731;DHT22;35622;52.008;5.426;2023-09-12T05:37:44;22.20;83.00
49731;DHT22;35622;52.008;5.426;2023-09-12T05:40:10;22.20;83.20
49731;DHT22;35622;52.008;5.426;2023-09-12T05:42:36;22.10;83.40
49731;DHT22;35622;52.008;5.426;2023-09-12T05:45:01;22.10;83.00
49731;DHT22;35622;52.008;5.426;2023-09-12T05:47:27;22.20;83.00
49731;DHT22;35622;52.008;5.426;2023-09-12T05:49:52;22.20;82.80
49731;DHT22;35622;52.008;5.426;2023-09-12T05:52:18;22.20;82.90
49731;DHT22;35622;52.008;5.426;2023-09-12T05:54:44;22.20;83.20
49731;DHT22;35622;52.008;5.426;2023-09-12T05:57:10;22.20;83.30
49731;DHT22;35622;52.008;5.426;2023-09-12T05:59:37;22.30;83.30
49731;DHT22;35622;52.008;5.426;2023-09-12T06:02:04;22.30;83.10
49731;DHT22;35622;52.008;5.426;2023-09-12T06:04:31;22.30;83.30
49731;DHT22;35622;52.008;5.426;2023-09-12T06:06:57;22.30;83.60
49731;DHT22;35622;52.008;5.426;2023-09-12T06:09:22;22.40;83.60
49731;DHT22;35622;52.008;5.426;2023-09-12T06:11:48;22.40;83.60
49731;DHT22;35622;52.008;5.426;2023-09-12T06:14:14;22.40;83.90
49731;DHT22;35622;52.008;5.426;2023-09-12T06:16:39;22.50;83.90
49731;DHT22;35622;52.008;5.426;2023-09-12T06:19:05;22.50;83.70
49731;DHT22;35622;52.008;5.426;2023-09-12T06:21:30;22.50;83.80
49731;DHT22;35622;52.008;5.426;2023-09-12T06:24:16;22.60;83.50
49731;DHT22;35622;52.008;5.426;2023-09-12T06:26:42;22.60;83.50
49731;DHT22;35622;52.008;5.426;2023-09-12T06:29:08;22.60;83.30
49731;DHT22;35622;52.008;5.426;2023-09-12T06:31:34;22.70;83.00
49731;DHT22;35622;52.008;5.426;2023-09-12T06:34:01;22.70;83.30
49731;DHT22;35622;52.008;5.426;2023-09-12T06:36:27;22.70;83.70
49731;DHT22;35622;52.008;5.426;2023-09-12T06:38:56;22.80;83.70
49731;DHT22;35622;52.008;5.426;2023-09-12T06:41:22;22.80;84.10
49731;DHT22;35622;52.008;5.426;2023-09-12T06:43:48;22.80;84.30
49731;DHT22;35622;52.008;5.426;2023-09-12T06:46:14;22.90;84.50
49731;DHT22;35622;52.008;5.426;2023-09-12T06:48:39;22.80;84.50
49731;DHT22;35622;52.008;5.426;2023-09-12T06:51:07;22.90;84.40
49731;DHT22;35622;52.008;5.426;2023-09-12T06:53:33;23.00;84.10
49731;DHT22;35622;52.008;5.426;2023-09-12T06:55:59;23.00;84.00
49731;DHT22;35622;52.008;5.426;2023-09-12T06:58:25;23.10;83.70
49731;DHT22;35622;52.008;5.426;2023-09-12T07:00:50;23.10;83.80
49731;DHT22;35622;52.008;5.426;2023-09-12T07:03:16;23.20;84.10
49731;DHT22;35622;52.008;5.426;2023-09-12T07:05:42;23.30;84.30
49731;DHT22;35622;52.008;5.426;2023-09-12T07:08:08;23.30;84.50
49731;DHT22;35622;52.008;5.426;2023-09-12T07:10:34;23.30;84.70
49731;DHT22;35622;52.008;5.426;2023-09-12T07:12:59;23.40;84.60
49731;DHT22;35622;52.008;5.426;2023-09-12T07:15:25;23.40;84.30
49731;DHT22;35622;52.008;5.426;2023-09-12T07:17:51;23.50;84.40
49731;DHT22;35622;52.008;5.426;2023-09-12T07:20:17;23.50;84.00
49731;DHT22;35622;52.008;5.426;2023-09-12T07:22:43;23.60;84.30
49731;DHT22;35622;52.008;5.426;2023-09-12T07:25:09;23.70;84.50
49731;DHT22;35622;52.008;5.426;2023-09-12T07:27:37;23.70;84.70
49731;DHT22;35622;52.008;5.426;2023-09-12T07:30:04;23.70;84.60
49731;DHT22;35622;52.008;5.426;2023-09-12T07:32:29;23.70;85.10
49731;DHT22;35622;52.008;5.426;2023-09-12T07:34:55;23.70;84.90
49731;DHT22;35622;52.008;5.426;2023-09-12T07:37:20;23.70;84.50
49731;DHT22;35622;52.008;5.426;2023-09-12T07:39:46;23.80;84.30
49731;DHT22;35622;52.008;5.426;2023-09-12T07:42:11;23.80;84.60
49731;DHT22;35622;52.008;5.426;2023-09-12T07:44:37;23.80;84.60
49731;DHT22;35622;52.008;5.426;2023-09-12T07:47:03;23.90;85.50
49731;DHT22;35622;52.008;5.426;2023-09-12T07:49:29;24.50;85.90
49731;DHT22;35622;52.008;5.426;2023-09-12T07:51:54;25.50;82.50
49731;DHT22;35622;52.008;5.426;2023-09-12T07:54:22;26.50;79.90
49731;DHT22;35622;52.008;5.426;2023-09-12T07:56:48;27.70;74.60
49731;DHT22;35622;52.008;5.426;2023-09-12T07:59:13;28.70;70.20
49731;DHT22;35622;52.008;5.426;2023-09-12T08:01:40;29.80;66.40
49731;DHT22;35622;52.008;5.426;2023-09-12T08:04:06;30.50;62.10
49731;DHT22;35622;52.008;5.426;2023-09-12T08:06:32;31.10;60.50
49731;DHT22;35622;52.008;5.426;2023-09-12T08:08:58;31.50;58.60
49731;DHT22;35622;52.008;5.426;2023-09-12T08:11:23;31.90;57.70
49731;DHT22;35622;52.008;5.426;2023-09-12T08:13:49;32.40;55.70
49731;DHT22;35622;52.008;5.426;2023-09-12T08:16:16;32.80;54.50
49731;DHT22;35622;52.008;5.426;2023-09-12T08:18:41;32.80;53.70
49731;DHT22;35622;52.008;5.426;2023-09-12T08:21:07;32.70;53.60
49731;DHT22;35622;52.008;5.426;2023-09-12T08:23:33;32.50;54.20
49731;DHT22;35622;52.008;5.426;2023-09-12T08:25:59;32.50;54.70
49731;DHT22;35622;52.008;5.426;2023-09-12T08:28:24;32.30;54.40
49731;DHT22;35622;52.008;5.426;2023-09-12T08:30:50;31.90;55.10
49731;DHT22;35622;52.008;5.426;2023-09-12T08:33:16;31.80;56.00
49731;DHT22;35622;52.008;5.426;2023-09-12T08:35:41;31.60;57.30
49731;DHT22;35622;52.008;5.426;2023-09-12T08:38:07;31.60;57.70
49731;DHT22;35622;52.008;5.426;2023-09-12T08:40:33;31.50;56.30
49731;DHT22;35622;52.008;5.426;2023-09-12T08:43:00;31.50;56.60
49731;DHT22;35622;52.008;5.426;2023-09-12T08:45:26;31.50;56.40
49731;DHT22;35622;52.008;5.426;2023-09-12T08:47:53;31.70;58.30
49731;DHT22;35622;52.008;5.426;2023-09-12T08:50:20;31.80;55.60
49731;DHT22;35622;52.008;5.426;2023-09-12T08:52:48;31.70;55.80
49731;DHT22;35622;52.008;5.426;2023-09-12T08:55:14;31.70;56.30
49731;DHT22;35622;52.008;5.426;2023-09-12T08:57:42;31.80;56.30
49731;DHT22;35622;52.008;5.426;2023-09-12T09:00:08;32.10;56.10
49731;DHT22;35622;52.008;5.426;2023-09-12T09:02:35;31.90;55.10
49731;DHT22;35622;52.008;5.426;2023-09-12T09:05:02;32.20;55.00
49731;DHT22;35622;52.008;5.426;2023-09-12T09:07:39;32.50;55.60
49731;DHT22;35622;52.008;5.426;2023-09-12T09:10:06;32.60;55.50
49731;DHT22;35622;52.008;5.426;2023-09-12T09:12:34;32.70;51.10
49731;DHT22;35622;52.008;5.426;2023-09-12T09:15:19;33.10;52.20
49731;DHT22;35622;52.008;5.426;2023-09-12T09:17:45;33.50;53.00
49731;DHT22;35622;52.008;5.426;2023-09-12T09:20:30;33.60;53.10
49731;DHT22;35622;52.008;5.426;2023-09-12T09:23:04;33.50;49.20
49731;DHT22;35622;52.008;5.426;2023-09-12T09:25:34;32.80;52.20
49731;DHT22;35622;52.008;5.426;2023-09-12T09:28:16;32.50;54.20
49731;DHT22;35622;52.008;5.426;2023-09-12T09:30:44;32.50;53.80
49731;DHT22;35622;52.008;5.426;2023-09-12T09:33:11;32.30;52.30
49731;DHT22;35622;52.008;5.426;2023-09-12T09:35:38;32.20;53.10
49731;DHT22;35622;52.008;5.426;2023-09-12T09:38:07;32.30;53.40
49731;DHT22;35622;52.008;5.426;2023-09-12T09:40:33;32.10;52.60
49731;DHT22;35622;52.008;5.426;2023-09-12T09:43:00;32.40;55.00
49731;DHT22;35622;52.008;5.426;2023-09-12T09:45:30;32.40;54.40
49731;DHT22;35622;52.008;5.426;2023-09-12T09:47:58;32.10;55.10
49731;DHT22;35622;52.008;5.426;2023-09-12T09:50:25;32.10;52.00
49731;DHT22;35622;52.008;5.426;2023-09-12T09:52:54;32.10;53.90
49731;DHT22;35622;52.008;5.426;2023-09-12T09:55:21;32.30;56.60
49731;DHT22;35622;52.008;5.426;2023-09-12T09:57:47;31.80;54.40
49731;DHT22;35622;52.008;5.426;2023-09-12T10:00:13;32.20;56.40
49731;DHT22;35622;52.008;5.426;2023-09-12T10:02:40;32.50;57.70
49731;DHT22;35622;52.008;5.426;2023-09-12T10:05:09;32.20;55.10
49731;DHT22;35622;52.008;5.426;2023-09-12T10:07:37;32.30;53.80
49731;DHT22;35622;52.008;5.426;2023-09-12T10:10:04;32.00;52.10
49731;DHT22;35622;52.008;5.426;2023-09-12T10:12:45;31.70;54.00
49731;DHT22;35622;52.008;5.426;2023-09-12T10:15:14;31.30;54.70
49731;DHT22;35622;52.008;5.426;2023-09-12T10:17:42;31.20;54.80
49731;DHT22;35622;52.008;5.426;2023-09-12T10:20:16;31.10;56.80
49731;DHT22;35622;52.008;5.426;2023-09-12T10:22:51;31.10;55.30
49731;DHT22;35622;52.008;5.426;2023-09-12T10:25:17;31.30;54.20
49731;DHT22;35622;52.008;5.426;2023-09-12T10:27:43;31.20;55.10
49731;DHT22;35622;52.008;5.426;2023-09-12T10:30:09;31.20;55.50
49731;DHT22;35622;52.008;5.426;2023-09-12T10:32:36;31.10;55.20
49731;DHT22;35622;52.008;5.426;2023-09-12T10:35:02;31.30;55.20
49731;DHT22;35622;52.008;5.426;2023-09-12T10:37:29;31.10;54.60
49731;DHT22;35622;52.008;5.426;2023-09-12T10:39:57;30.80;54.60
49731;DHT22;35622;52.008;5.426;2023-09-12T10:42:24;30.70;56.10
49731;DHT22;35622;52.008;5.426;2023-09-12T10:44:52;30.50;55.90
49731;DHT22;35622;52.008;5.426;2023-09-12T10:47:19;30.60;56.40
49731;DHT22;35622;52.008;5.426;2023-09-12T10:49:45;30.50;57.00
49731;DHT22;35622;52.008;5.426;2023-09-12T10:52:24;30.50;57.90
49731;DHT22;35622;52.008;5.426;2023-09-12T10:54:50;30.30;57.60
49731;DHT22;35622;52.008;5.426;2023-09-12T10:57:15;30.30;59.70
49731;DHT22;35622;52.008;5.426;2023-09-12T11:02:35;29.90;60.60
49731;DHT22;35622;52.008;5.426;2023-09-12T11:05:04;29.80;58.40
49731;DHT22;35622;52.008;5.426;2023-09-12T11:10:28;29.30;58.80
49731;DHT22;35622;52.008;5.426;2023-09-12T11:12:55;29.60;60.00
49731;DHT22;35622;52.008;5.426;2023-09-12T11:15:24;30.00;60.50
49731;DHT22;35622;52.008;5.426;2023-09-12T11:18:03;30.70;57.70
49731;DHT22;35622;52.008;5.426;2023-09-12T11:23:22;31.20;54.00
49731;DHT22;35622;52.008;5.426;2023-09-12T11:25:48;31.50;53.20
49731;DHT22;35622;52.008;5.426;2023-09-12T11:28:14;31.40;53.60
49731;DHT22;35622;52.008;5.426;2023-09-12T11:30:56;31.20;54.60
49731;DHT22;35622;52.008;5.426;2023-09-12T11:33:24;31.00;55.50
49731;DHT22;35622;52.008;5.426;2023-09-12T11:35:52;31.10;54.40
49731;DHT22;35622;52.008;5.426;2023-09-12T11:38:29;31.10;54.40
49731;DHT22;35622;52.008;5.426;2023-09-12T11:40:57;31.00;53.40
49731;DHT22;35622;52.008;5.426;2023-09-12T11:43:24;30.90;55.00
49731;DHT22;35622;52.008;5.426;2023-09-12T11:45:50;30.60;55.20
49731;DHT22;35622;52.008;5.426;2023-09-12T11:48:17;30.70;56.70
49731;DHT22;35622;52.008;5.426;2023-09-12T11:50:49;30.80;55.00
49731;DHT22;35622;52.008;5.426;2023-09-12T11:53:18;30.50;56.20
49731;DHT22;35622;52.008;5.426;2023-09-12T11:55:46;30.70;55.50
49731;DHT22;35622;52.008;5.426;2023-09-12T11:58:13;31.10;56.80
49731;DHT22;35622;52.008;5.426;2023-09-12T12:00:51;31.20;52.80
49731;DHT22;35622;52.008;5.426;2023-09-12T12:03:19;31.70;54.70
49731;DHT22;35622;52.008;5.426;2023-09-12T12:05:46;32.00;54.30
49731;DHT22;35622;52.008;5.426;2023-09-12T12:08:12;32.00;50.70
49731;DHT22;35622;52.008;5.426;2023-09-12T12:10:37;32.20;51.80
49731;DHT22;35622;52.008;5.426;2023-09-12T12:13:26;31.70;51.00
49731;DHT22;35622;52.008;5.426;2023-09-12T12:15:53;31.80;53.40
49731;DHT22;35622;52.008;5.426;2023-09-12T12:18:19;31.00;51.70
49731;DHT22;35622;52.008;5.426;2023-09-12T12:20:44;31.20;51.90
49731;DHT22;35622;52.008;5.426;2023-09-12T12:23:10;31.20;53.30
49731;DHT22;35622;52.008;5.426;2023-09-12T12:25:36;31.40;51.90
49731;DHT22;35622;52.008;5.426;2023-09-12T12:28:03;31.30;52.50
49731;DHT22;35622;52.008;5.426;2023-09-12T12:30:33;31.30;53.10
49731;DHT22;35622;52.008;5.426;2023-09-12T12:33:01;31.10;52.40
49731;DHT22;35622;52.008;5.426;2023-09-12T12:35:28;31.00;51.10
49731;DHT22;35622;52.008;5.426;2023-09-12T12:37:55;31.00;51.90
49731;DHT22;35622;52.008;5.426;2023-09-12T12:40:23;30.80;51.80
49731;DHT22;35622;52.008;5.426;2023-09-12T12:42:49;31.00;51.60
49731;DHT22;35622;52.008;5.426;2023-09-12T12:45:16;31.00;51.40
49731;DHT22;35622;52.008;5.426;2023-09-12T12:47:43;31.10;52.90
49731;DHT22;35622;52.008;5.426;2023-09-12T12:50:14;30.90;51.00
49731;DHT22;35622;52.008;5.426;2023-09-12T12:52:40;30.50;51.80
49731;DHT22;35622;52.008;5.426;2023-09-12T12:55:10;30.40;53.40
49731;DHT22;35622;52.008;5.426;2023-09-12T12:57:38;30.50;54.20
49731;DHT22;35622;52.008;5.426;2023-09-12T13:00:12;30.80;51.30
49731;DHT22;35622;52.008;5.426;2023-09-12T13:02:38;30.90;53.20
49731;DHT22;35622;52.008;5.426;2023-09-12T13:05:26;30.60;51.40
49731;DHT22;35622;52.008;5.426;2023-09-12T13:07:52;29.90;52.20
49731;DHT22;35622;52.008;5.426;2023-09-12T13:10:18;29.90;51.60
49731;DHT22;35622;52.008;5.426;2023-09-12T13:12:44;29.70;52.90
49731;DHT22;35622;52.008;5.426;2023-09-12T13:15:13;29.40;56.20
49731;DHT22;35622;52.008;5.426;2023-09-12T13:17:40;29.60;56.70
49731;DHT22;35622;52.008;5.426;2023-09-12T13:20:18;29.90;55.50
49731;DHT22;35622;52.008;5.426;2023-09-12T13:22:44;30.00;56.20
49731;DHT22;35622;52.008;5.426;2023-09-12T13:25:09;30.20;57.80
49731;DHT22;35622;52.008;5.426;2023-09-12T13:27:35;30.40;55.70
49731;DHT22;35622;52.008;5.426;2023-09-12T13:30:00;29.30;54.70
49731;DHT22;35622;52.008;5.426;2023-09-12T13:32:26;28.70;53.80
49731;DHT22;35622;52.008;5.426;2023-09-12T13:34:53;28.70;55.60
49731;DHT22;35622;52.008;5.426;2023-09-12T13:37:18;29.00;54.50
49731;DHT22;35622;52.008;5.426;2023-09-12T13:39:44;29.40;55.70
49731;DHT22;35622;52.008;5.426;2023-09-12T13:42:15;29.70;54.30
49731;DHT22;35622;52.008;5.426;2023-09-12T13:44:46;29.70;52.60
49731;DHT22;35622;52.008;5.426;2023-09-12T13:47:12;29.70;54.40
49731;DHT22;35622;52.008;5.426;2023-09-12T13:49:37;30.30;52.90
49731;DHT22;35622;52.008;5.426;2023-09-12T13:52:03;30.60;50.10
49731;DHT22;35622;52.008;5.426;2023-09-12T13:54:29;30.90;51.20
49731;DHT22;35622;52.008;5.426;2023-09-12T13:56:55;31.00;51.80
49731;DHT22;35622;52.008;5.426;2023-09-12T13:59:20;31.20;51.40
49731;DHT22;35622;52.008;5.426;2023-09-12T14:01:46;31.20;49.40
49731;DHT22;35622;52.008;5.426;2023-09-12T14:04:12;31.00;50.00
49731;DHT22;35622;52.008;5.426;2023-09-12T14:06:38;30.80;52.90
49731;DHT22;35622;52.008;5.426;2023-09-12T14:09:04;30.20;52.40
49731;DHT22;35622;52.008;5.426;2023-09-12T14:11:30;30.40;51.60
49731;DHT22;35622;52.008;5.426;2023-09-12T14:13:56;30.80;51.50
49731;DHT22;35622;52.008;5.426;2023-09-12T14:16:21;30.80;49.90
49731;DHT22;35622;52.008;5.426;2023-09-12T14:18:47;30.30;50.10
49731;DHT22;35622;52.008;5.426;2023-09-12T14:21:12;30.50;51.50
49731;DHT22;35622;52.008;5.426;2023-09-12T14:23:38;30.70;51.30
49731;DHT22;35622;52.008;5.426;2023-09-12T14:26:03;30.80;53.30
49731;DHT22;35622;52.008;5.426;2023-09-12T14:28:29;31.00;55.00
49731;DHT22;35622;52.008;5.426;2023-09-12T14:30:57;30.70;52.20
49731;DHT22;35622;52.008;5.426;2023-09-12T14:33:23;30.80;53.10
49731;DHT22;35622;52.008;5.426;2023-09-12T14:35:48;30.70;51.50
49731;DHT22;35622;52.008;5.426;2023-09-12T14:38:14;30.40;52.50
49731;DHT22;35622;52.008;5.426;2023-09-12T14:40:39;30.00;52.90
49731;DHT22;35622;52.008;5.426;2023-09-12T14:43:05;29.90;54.10
49731;DHT22;35622;52.008;5.426;2023-09-12T14:45:32;30.30;53.20
49731;DHT22;35622;52.008;5.426;2023-09-12T14:47:58;30.50;53.50
49731;DHT22;35622;52.008;5.426;2023-09-12T14:50:24;30.10;53.70
49731;DHT22;35622;52.008;5.426;2023-09-12T14:52:51;30.10;54.20
49731;DHT22;35622;52.008;5.426;2023-09-12T14:55:16;30.10;54.00
49731;DHT22;35622;52.008;5.426;2023-09-12T14:57:42;30.10;53.80
49731;DHT22;35622;52.008;5.426;2023-09-12T15:00:08;29.90;53.90
49731;DHT22;35622;52.008;5.426;2023-09-12T15:02:33;29.70;54.30
49731;DHT22;35622;52.008;5.426;2023-09-12T15:05:00;29.90;54.20
49731;DHT22;35622;52.008;5.426;2023-09-12T15:07:27;29.70;54.80
49731;DHT22;35622;52.008;5.426;2023-09-12T15:09:55;29.60;54.80
49731;DHT22;35622;52.008;5.426;2023-09-12T15:12:20;29.50;55.20
49731;DHT22;35622;52.008;5.426;2023-09-12T15:14:46;29.40;55.20
49731;DHT22;35622;52.008;5.426;2023-09-12T15:17:11;29.20;55.60
49731;DHT22;35622;52.008;5.426;2023-09-12T15:19:37;29.10;56.20
49731;DHT22;35622;52.008;5.426;2023-09-12T15:22:02;29.10;55.10
49731;DHT22;35622;52.008;5.426;2023-09-12T15:24:28;29.00;55.30
49731;DHT22;35622;52.008;5.426;2023-09-12T15:26:53;28.90;56.10
49731;DHT22;35622;52.008;5.426;2023-09-12T15:29:19;28.90;55.50
49731;DHT22;35622;52.008;5.426;2023-09-12T15:31:44;28.80;56.50
49731;DHT22;35622;52.008;5.426;2023-09-12T15:34:10;28.60;56.20
49731;DHT22;35622;52.008;5.426;2023-09-12T15:36:42;28.80;57.10
49731;DHT22;35622;52.008;5.426;2023-09-12T15:39:08;28.90;56.30
49731;DHT22;35622;52.008;5.426;2023-09-12T15:41:35;28.80;56.00